createdAt,value
2019-04-21T00:00:24.052Z,31.82
2019-04-21T00:03:07.425Z,34.45
2019-04-21T00:05:58.868Z,33.58
2019-04-21T00:08:56.466Z,34.53
2019-04-21T00:11:36.546Z,33.08
2019-04-21T00:14:01.959Z,31.55
2019-04-21T00:16:38.497Z,32.05
2019-04-21T00:19:34.931Z,32.03
2019-04-21T00:22:23.768Z,31.93
2019-04-21T00:25:04.367Z,31.02
2019-04-21T00:27:45.456Z,29.23
2019-04-21T00:30:30.279Z,28.65
2019-04-21T00:32:54.087Z,28.12
2019-04-21T00:35:25.798Z,26.57
2019-04-21T00:38:21.598Z,28.07
2019-04-21T00:41:01.737Z,27.02
2019-04-21T00:43:28.414Z,29.23
2019-04-21T00:46:04.820Z,28.47
2019-04-21T00:48:53.541Z,27.27
2019-04-21T00:51:42.036Z,29.65
2019-04-21T00:54:21.107Z,29.20
2019-04-21T00:56:56.417Z,29.42
2019-04-21T00:59:33.568Z,28.12
2019-04-21T01:02:05.853Z,27.60
2019-04-21T01:04:42.582Z,26.07
2019-04-21T01:07:20.354Z,25.45
2019-04-21T01:09:53.984Z,24.98
2019-04-21T01:12:37.952Z,25.15
2019-04-21T01:15:24.613Z,23.77
2019-04-21T01:17:53.177Z,25.45
2019-04-21T01:20:16.834Z,26.62
2019-04-21T01:22:49.084Z,27.70
2019-04-21T01:25:34.885Z,28.73
2019-04-21T01:28:23.204Z,28.52
2019-04-21T01:31:04.257Z,25.88
2019-04-21T01:33:45.054Z,24.98
2019-04-21T01:36:14.095Z,25.82
2019-04-21T01:38:58.983Z,26.97
2019-04-21T01:44:19.711Z,29.05
2019-04-21T01:46:48.064Z,30.25
2019-04-21T01:49:19.139Z,32.40
2019-04-21T01:52:20.534Z,35.43
2019-04-21T01:55:01.884Z,36.40
2019-04-21T01:57:54.305Z,28.50
2019-04-21T02:00:56.776Z,29.82
2019-04-21T02:06:19.517Z,33.00
2019-04-21T02:08:48.793Z,31.87
2019-04-21T02:11:35.413Z,32.28
2019-04-21T02:14:12.940Z,28.70
2019-04-21T02:16:49.716Z,23.75
2019-04-21T02:19:27.885Z,20.77
2019-04-21T02:22:01.455Z,19.10
2019-04-21T02:24:51.343Z,19.02
2019-04-21T02:27:23.726Z,18.95
2019-04-21T02:30:03.493Z,19.30
2019-04-21T02:32:47.901Z,19.73
2019-04-21T02:40:46.542Z,22.35
2019-04-21T02:48:51.382Z,20.85
2019-04-21T02:51:23.431Z,19.77
2019-04-21T02:54:24.434Z,18.27
2019-04-21T02:56:34.446Z,18.48
2019-04-21T02:59:17.113Z,18.62
2019-04-21T03:02:05.594Z,19.82
2019-04-21T03:07:21.543Z,18.67
2019-04-21T03:10:02.322Z,18.05
2019-04-21T03:12:42.184Z,14.93
2019-04-21T03:15:23.504Z,14.80
2019-04-21T03:18:04.478Z,15.00
2019-04-21T03:20:52.934Z,13.70
2019-04-21T03:23:23.785Z,14.55
2019-04-21T03:25:59.061Z,13.80
2019-04-21T03:34:29.237Z,14.33
2019-04-21T03:39:01.757Z,13.08
2019-04-21T03:41:50.633Z,14.03
2019-04-21T03:44:22.976Z,15.23
2019-04-21T03:49:47.581Z,16.45
2019-04-21T03:52:45.565Z,15.43
2019-04-21T03:58:17.813Z,14.33
2019-04-21T04:01:05.995Z,14.87
2019-04-21T04:06:38.864Z,14.83
2019-04-21T04:09:40.019Z,14.23
2019-04-21T04:14:42.482Z,13.55
2019-04-21T04:19:59.069Z,13.25
2019-04-21T04:22:45.582Z,13.13
2019-04-21T04:28:02.181Z,12.85
2019-04-21T04:30:34.041Z,13.20
2019-04-21T04:32:59.088Z,13.28
2019-04-21T04:35:52.897Z,12.93
2019-04-21T04:38:24.145Z,14.50
2019-04-21T04:41:14.644Z,14.20
2019-04-21T04:43:54.646Z,14.10
2019-04-21T04:46:29.365Z,13.25
2019-04-21T04:49:10.769Z,14.25
2019-04-21T04:51:58.639Z,14.87
2019-04-21T04:54:31.596Z,14.45
2019-04-21T04:59:42.441Z,14.03
2019-04-21T05:02:28.324Z,14.73
2019-04-21T05:05:14.117Z,14.93
2019-04-21T05:07:42.986Z,14.40
2019-04-21T05:10:09.693Z,14.75
2019-04-21T05:12:44.262Z,13.60
2019-04-21T05:15:19.282Z,13.48
2019-04-21T05:17:57.386Z,13.03
2019-04-21T05:20:50.615Z,14.10
2019-04-21T05:23:11.699Z,13.68
2019-04-21T05:25:41.626Z,13.83
2019-04-21T05:28:20.060Z,13.55
2019-04-21T05:31:25.003Z,14.98
2019-04-21T05:34:04.730Z,14.47
2019-04-21T05:37:11.043Z,13.85
2019-04-21T05:39:49.498Z,14.13
2019-04-21T05:42:24.970Z,14.13
2019-04-21T05:45:29.488Z,14.23
2019-04-21T05:50:49.557Z,13.95
2019-04-21T05:56:12.472Z,13.90
2019-04-21T05:58:43.752Z,14.78
2019-04-21T06:01:32.811Z,15.60
2019-04-21T06:04:05.497Z,14.78
2019-04-21T06:06:43.595Z,15.23
2019-04-21T06:09:19.190Z,15.55
2019-04-21T06:11:57.438Z,15.28
2019-04-21T06:14:39.364Z,15.00
2019-04-21T06:17:19.778Z,15.30
2019-04-21T06:22:23.894Z,14.98
2019-04-21T06:25:31.187Z,15.00
2019-04-21T06:27:45.884Z,13.98
2019-04-21T06:30:27.602Z,14.30
2019-04-21T06:33:11.738Z,14.65
2019-04-21T06:36:23.457Z,14.98
2019-04-21T06:41:34.367Z,14.00
2019-04-21T06:44:14.895Z,15.10
2019-04-21T06:46:59.060Z,13.85
2019-04-21T06:49:25.007Z,14.30
2019-04-21T06:52:21.653Z,14.20
2019-04-21T06:54:47.086Z,13.88
2019-04-21T06:57:29.557Z,13.95
2019-04-21T07:00:03.836Z,13.58
2019-04-21T07:03:02.953Z,13.75
2019-04-21T07:05:20.416Z,13.85
2019-04-21T07:08:14.793Z,14.25
2019-04-21T07:10:52.721Z,13.55
2019-04-21T07:13:11.880Z,13.53
2019-04-21T07:15:52.997Z,13.65
2019-04-21T07:18:37.282Z,15.15
2019-04-21T07:21:08.289Z,15.10
2019-04-21T07:23:53.894Z,14.85
2019-04-21T07:26:25.117Z,14.87
2019-04-21T07:31:48.193Z,14.78
2019-04-21T07:34:21.467Z,14.38
2019-04-21T07:39:34.055Z,15.30
2019-04-21T07:42:09.460Z,15.30
2019-04-21T07:44:46.031Z,16.20
2019-04-21T07:47:36.984Z,14.90
2019-04-21T07:50:14.720Z,15.65
2019-04-21T07:53:01.517Z,15.50
2019-04-21T07:58:14.965Z,14.60
2019-04-21T08:01:02.498Z,14.80
2019-04-21T08:06:30.514Z,15.55
2019-04-21T08:08:49.209Z,14.80
2019-04-21T08:11:21.047Z,14.85
2019-04-21T08:14:01.074Z,15.88
2019-04-21T08:16:40.285Z,16.07
2019-04-21T08:19:20.578Z,15.35
2019-04-21T08:22:05.235Z,15.08
2019-04-21T08:24:36.428Z,16.20
2019-04-21T08:27:17.746Z,15.48
2019-04-21T08:29:51.633Z,15.68
2019-04-21T08:32:42.347Z,15.08
2019-04-21T08:35:48.579Z,14.58
2019-04-21T08:37:46.092Z,15.20
2019-04-21T08:42:59.819Z,14.65
2019-04-21T08:45:41.581Z,14.40
2019-04-21T08:48:17.034Z,16.10
2019-04-21T08:51:05.979Z,15.23
2019-04-21T08:56:43.048Z,16.30
2019-04-21T08:59:31.398Z,15.35
2019-04-21T09:02:26.367Z,14.40
2019-04-21T09:04:59.127Z,14.85
2019-04-21T09:07:41.304Z,15.08
2019-04-21T09:10:14.389Z,14.38
2019-04-21T09:12:51.823Z,14.60
2019-04-21T09:15:31.152Z,15.70
2019-04-21T09:18:02.882Z,14.45
2019-04-21T09:20:52.666Z,15.35
2019-04-21T09:23:28.829Z,14.20
2019-04-21T09:26:05.211Z,15.23
2019-04-21T09:28:36.730Z,15.60
2019-04-21T09:31:04.626Z,15.18
2019-04-21T09:33:46.723Z,14.80
2019-04-21T09:36:21.283Z,14.80
2019-04-21T09:39:03.629Z,15.13
2019-04-21T09:41:36.393Z,14.47
2019-04-21T09:44:22.141Z,14.53
2019-04-21T09:46:56.354Z,14.78
2019-04-21T09:49:32.850Z,15.23
2019-04-21T09:52:13.763Z,14.68
2019-04-21T09:54:53.047Z,14.60
2019-04-21T09:57:36.656Z,14.50
2019-04-21T10:00:12.000Z,14.15
2019-04-21T10:02:50.272Z,14.18
2019-04-21T10:05:19.108Z,14.28
2019-04-21T10:07:55.707Z,15.08
2019-04-21T10:10:34.119Z,14.87
2019-04-21T10:13:10.713Z,14.60
2019-04-21T10:15:48.811Z,14.40
2019-04-21T10:18:25.366Z,14.80
2019-04-21T10:21:01.257Z,14.43
2019-04-21T10:23:39.395Z,14.87
2019-04-21T10:26:16.810Z,15.58
2019-04-21T10:28:53.494Z,15.98
2019-04-21T10:31:30.937Z,15.95
2019-04-21T10:34:07.412Z,14.55
2019-04-21T10:36:45.131Z,15.23
2019-04-21T10:39:21.752Z,14.85
2019-04-21T10:41:59.494Z,15.65
2019-04-21T10:44:36.765Z,14.87
2019-04-21T10:47:14.499Z,15.78
2019-04-21T10:49:51.095Z,15.32
2019-04-21T10:52:34.012Z,16.25
2019-04-21T10:55:27.365Z,17.05
2019-04-21T10:58:06.496Z,15.43
2019-04-21T11:00:44.263Z,16.48
2019-04-21T11:03:42.382Z,16.70
2019-04-21T11:06:21.166Z,16.97
2019-04-21T11:08:59.504Z,16.95
2019-04-21T11:11:35.425Z,16.55
2019-04-21T11:14:11.718Z,17.17
2019-04-21T11:16:49.746Z,17.10
2019-04-21T11:19:26.480Z,17.10
2019-04-21T11:22:02.973Z,16.45
2019-04-21T11:24:40.858Z,17.87
2019-04-21T11:27:19.090Z,17.07
2019-04-21T11:29:55.759Z,17.23
2019-04-21T11:32:34.796Z,16.95
2019-04-21T11:35:10.652Z,18.32
2019-04-21T11:37:46.574Z,18.90
2019-04-21T11:40:23.946Z,19.62
2019-04-21T11:43:01.949Z,20.37
2019-04-21T11:45:42.077Z,20.60
2019-04-21T11:48:26.206Z,21.37
2019-04-21T11:51:02.930Z,20.68
2019-04-21T11:53:41.024Z,22.48
2019-04-21T11:56:18.980Z,22.22
2019-04-21T11:58:55.029Z,24.85
2019-04-21T12:01:33.707Z,25.00
2019-04-21T12:04:11.636Z,21.00
2019-04-21T12:07:07.214Z,22.48
2019-04-21T12:09:44.126Z,19.70
2019-04-21T12:12:21.197Z,18.98
2019-04-21T12:14:57.782Z,19.27
2019-04-21T12:17:34.540Z,20.05
2019-04-21T12:20:12.437Z,19.48
2019-04-21T12:22:49.958Z,19.07
2019-04-21T12:25:29.177Z,19.35
2019-04-21T12:28:05.826Z,18.90
2019-04-21T12:30:43.026Z,19.55
2019-04-21T12:33:29.875Z,19.15
2019-04-21T12:36:06.256Z,20.65
2019-04-21T12:38:48.878Z,19.57
2019-04-21T12:41:22.589Z,18.67
2019-04-21T12:44:00.355Z,19.12
2019-04-21T12:46:38.066Z,19.57
2019-04-21T12:49:15.949Z,19.02
2019-04-21T12:51:53.898Z,18.67
2019-04-21T12:54:30.450Z,18.70
2019-04-21T12:57:07.797Z,17.45
2019-04-21T12:59:44.661Z,19.23
2019-04-21T13:02:21.966Z,18.82
2019-04-21T13:04:59.698Z,17.87
2019-04-21T13:07:37.335Z,19.98
2019-04-21T13:10:14.189Z,18.65
2019-04-21T13:12:52.176Z,19.98
2019-04-21T13:15:29.345Z,18.95
2019-04-21T13:18:05.854Z,19.32
2019-04-21T13:20:42.525Z,18.95
2019-04-21T13:23:18.944Z,19.95
2019-04-21T13:25:57.644Z,19.60
2019-04-21T13:28:34.586Z,19.55
2019-04-21T13:31:11.854Z,19.62
2019-04-21T13:33:48.318Z,20.72
2019-04-21T13:36:25.636Z,20.45
2019-04-21T13:39:55.599Z,20.75
2019-04-21T13:42:17.505Z,20.32
2019-04-21T13:44:48.823Z,20.30
2019-04-21T13:47:25.059Z,20.02
2019-04-21T13:50:03.687Z,20.45
2019-04-21T13:52:40.652Z,19.77
2019-04-21T13:55:17.206Z,19.85
2019-04-21T13:57:54.535Z,19.42
2019-04-21T14:00:31.775Z,20.30
2019-04-21T14:03:08.496Z,18.90
2019-04-21T14:05:46.380Z,20.50
2019-04-21T14:08:23.124Z,20.08
2019-04-21T14:10:59.812Z,20.37
2019-04-21T14:13:36.464Z,20.60
2019-04-21T14:16:14.045Z,20.37
2019-04-21T14:18:51.731Z,19.77
2019-04-21T14:21:29.398Z,19.45
2019-04-21T14:24:06.740Z,20.52
2019-04-21T14:26:44.469Z,19.55
2019-04-21T14:29:21.753Z,18.85
2019-04-21T14:32:00.045Z,20.40
2019-04-21T14:34:37.679Z,21.23
2019-04-21T14:37:16.937Z,20.27
2019-04-21T14:40:01.838Z,24.10
2019-04-21T14:42:31.951Z,20.60
2019-04-21T14:45:10.564Z,21.80
2019-04-21T14:48:04.993Z,20.82
2019-04-21T14:50:58.062Z,23.05
2019-04-21T14:53:43.663Z,22.80
2019-04-21T14:56:19.445Z,22.22
2019-04-21T14:58:57.612Z,24.00
2019-04-21T15:01:33.790Z,23.87
2019-04-21T15:04:10.067Z,25.48
2019-04-21T15:06:45.723Z,26.35
2019-04-21T15:09:22.897Z,28.15
2019-04-21T15:12:00.197Z,30.08
2019-04-21T15:14:36.335Z,29.87
2019-04-21T15:17:12.518Z,30.43
2019-04-21T15:19:58.708Z,30.12
2019-04-21T15:22:28.340Z,30.20
2019-04-21T15:25:05.857Z,31.45
2019-04-21T15:27:43.104Z,30.88
2019-04-21T15:30:20.743Z,30.08
2019-04-21T15:32:58.110Z,31.35
2019-04-21T15:35:35.185Z,30.12
2019-04-21T15:38:12.044Z,30.62
2019-04-21T15:40:55.424Z,30.48
2019-04-21T15:43:28.575Z,31.60
2019-04-21T15:46:06.633Z,31.77
2019-04-21T15:48:44.672Z,30.52
2019-04-21T15:51:21.974Z,31.30
2019-04-21T15:54:00.586Z,31.60
2019-04-21T15:56:44.775Z,30.92
2019-04-21T15:59:38.298Z,30.40
2019-04-21T16:02:32.879Z,30.32
2019-04-21T16:05:10.551Z,29.40
2019-04-21T16:07:47.927Z,28.98
2019-04-21T16:10:48.970Z,29.87
2019-04-21T16:13:21.620Z,28.27
2019-04-21T16:15:58.816Z,27.58
2019-04-21T16:18:36.284Z,26.20
2019-04-21T16:21:13.810Z,26.73
2019-04-21T16:23:51.285Z,24.02
2019-04-21T16:26:28.814Z,25.10
2019-04-21T16:29:07.075Z,25.43
2019-04-21T16:31:44.533Z,24.43
2019-04-21T16:34:21.940Z,23.73
2019-04-21T16:36:59.471Z,24.27
2019-04-21T16:39:37.647Z,24.23
2019-04-21T16:42:16.110Z,24.67
2019-04-21T16:44:52.793Z,24.30
2019-04-21T16:47:30.313Z,23.65
2019-04-21T16:50:07.665Z,25.05
2019-04-21T16:52:50.546Z,22.60
2019-04-21T16:55:39.235Z,24.00
2019-04-21T16:58:32.645Z,23.70
2019-04-21T17:01:16.237Z,25.12
2019-04-21T17:03:50.235Z,24.85
2019-04-21T17:06:27.026Z,24.40
2019-04-21T17:09:05.029Z,24.35
2019-04-21T17:11:44.027Z,24.10
2019-04-21T17:14:35.497Z,24.35
2019-04-21T17:17:20.598Z,24.43
2019-04-21T17:19:43.575Z,24.23
2019-04-21T17:22:15.862Z,24.75
2019-04-21T17:24:53.270Z,24.05
2019-04-21T17:27:31.094Z,23.25
2019-04-21T17:30:08.511Z,23.57
2019-04-21T17:32:49.501Z,23.47
2019-04-21T17:35:22.929Z,23.77
2019-04-21T17:38:01.551Z,24.20
2019-04-21T17:40:38.133Z,23.77
2019-04-21T17:43:17.865Z,25.15
2019-04-21T17:45:53.203Z,24.90
2019-04-21T17:48:31.113Z,23.42
2019-04-21T17:51:26.042Z,23.45
2019-04-21T17:54:17.510Z,22.07
2019-04-21T17:57:11.442Z,22.55
2019-04-21T18:00:00.116Z,23.22
2019-04-21T18:02:27.847Z,22.10
2019-04-21T18:05:05.448Z,22.48
2019-04-21T18:07:45.398Z,22.32
2019-04-21T18:10:14.241Z,21.87
2019-04-21T18:12:45.943Z,21.93
2019-04-21T18:15:32.494Z,22.48
2019-04-21T18:17:52.468Z,23.15
2019-04-21T18:20:32.247Z,21.97
2019-04-21T18:23:39.437Z,22.60
2019-04-21T18:26:11.464Z,22.02
2019-04-21T18:28:42.203Z,21.65
2019-04-21T18:31:18.538Z,23.60
2019-04-21T18:34:13.890Z,31.62
2019-04-21T18:36:55.514Z,24.85
2019-04-21T18:39:55.820Z,23.27
2019-04-21T18:42:47.880Z,24.75
2019-04-21T18:45:48.012Z,24.55
2019-04-21T18:48:27.441Z,25.90
2019-04-21T18:51:04.676Z,24.60
2019-04-21T18:54:19.324Z,24.20
2019-04-21T18:56:31.689Z,24.72
2019-04-21T18:59:08.857Z,23.85
2019-04-21T19:01:51.695Z,23.47
2019-04-21T19:04:28.747Z,24.60
2019-04-21T19:07:16.897Z,23.60
2019-04-21T19:10:14.365Z,23.85
2019-04-21T19:13:08.047Z,25.62
2019-04-21T19:15:12.280Z,24.32
2019-04-21T19:18:27.703Z,23.98
2019-04-21T19:20:29.495Z,22.65
2019-04-21T19:23:08.380Z,23.47
2019-04-21T19:25:47.348Z,24.18
2019-04-21T19:28:26.971Z,23.02
2019-04-21T19:33:33.585Z,23.52
2019-04-21T19:36:01.419Z,23.02
2019-04-21T19:38:49.408Z,24.10
2019-04-21T19:41:32.833Z,24.15
2019-04-21T19:44:12.102Z,23.45
2019-04-21T19:46:53.291Z,24.07
2019-04-21T19:49:35.041Z,25.37
2019-04-21T19:51:57.511Z,24.82
2019-04-21T19:54:33.976Z,25.32
2019-04-21T19:57:04.899Z,25.27
2019-04-21T19:59:47.683Z,25.37
2019-04-21T20:02:20.435Z,25.40
2019-04-21T20:05:02.139Z,24.87
2019-04-21T20:07:49.465Z,24.25
2019-04-21T20:10:33.651Z,23.70
2019-04-21T20:13:14.511Z,24.85
2019-04-21T20:15:52.327Z,24.20
2019-04-21T20:18:21.047Z,23.07
2019-04-21T20:20:46.012Z,24.32
2019-04-21T20:23:28.647Z,24.52
2019-04-21T20:26:04.608Z,24.02
2019-04-21T20:28:49.286Z,22.93
2019-04-21T20:31:36.477Z,24.10
2019-04-21T20:34:21.166Z,24.45
2019-04-21T20:36:56.738Z,24.40
2019-04-21T20:39:18.811Z,24.65
2019-04-21T20:42:04.128Z,25.02
2019-04-21T20:44:54.528Z,23.87
2019-04-21T20:47:20.012Z,25.25
2019-04-21T20:49:59.712Z,23.55
2019-04-21T20:52:44.777Z,24.02
2019-04-21T20:55:13.236Z,24.00
2019-04-21T20:57:51.512Z,23.02
2019-04-21T21:01:16.793Z,23.40
2019-04-21T21:03:28.878Z,22.77
2019-04-21T21:06:02.264Z,23.22
2019-04-21T21:08:44.895Z,21.30
2019-04-21T21:11:23.138Z,20.35
2019-04-21T21:14:01.923Z,21.42
2019-04-21T21:16:46.317Z,21.80
2019-04-21T21:19:21.016Z,22.87
2019-04-21T21:21:49.964Z,20.17
2019-04-21T21:24:39.369Z,21.57
2019-04-21T21:27:10.435Z,21.25
2019-04-21T21:29:50.304Z,21.17
2019-04-21T21:32:27.425Z,20.82
2019-04-21T21:35:07.919Z,21.57
2019-04-21T21:37:49.550Z,22.50
2019-04-21T21:40:26.870Z,26.55
2019-04-21T21:42:45.691Z,29.07
2019-04-21T21:45:26.948Z,28.20
2019-04-21T21:48:18.676Z,26.62
2019-04-21T21:50:45.599Z,28.02
2019-04-21T21:53:21.533Z,28.92
2019-04-21T21:55:54.272Z,28.23
2019-04-21T21:58:36.445Z,28.62
2019-04-21T22:01:13.192Z,28.27
2019-04-21T22:04:01.680Z,27.60
2019-04-21T22:06:41.044Z,28.87
2019-04-21T22:09:06.244Z,30.43
2019-04-21T22:11:44.264Z,28.00
2019-04-21T22:14:25.885Z,30.27
2019-04-21T22:17:16.455Z,27.58
2019-04-21T22:20:03.062Z,28.73
2019-04-21T22:22:28.576Z,29.45
2019-04-21T22:25:04.798Z,29.05
2019-04-21T22:27:31.338Z,30.10
2019-04-21T22:30:13.068Z,29.77
2019-04-21T22:32:52.793Z,30.30
2019-04-21T22:35:35.953Z,28.17
2019-04-21T22:38:21.150Z,29.72
2019-04-21T22:40:55.486Z,31.90
2019-04-21T22:43:27.241Z,30.10
2019-04-21T22:45:56.580Z,28.32
2019-04-21T22:48:34.734Z,31.20
2019-04-21T22:51:20.607Z,30.27
2019-04-21T22:53:51.894Z,32.05
2019-04-21T22:56:31.636Z,31.30
2019-04-21T22:59:10.995Z,33.10
2019-04-21T23:01:49.908Z,33.33
2019-04-21T23:04:25.441Z,34.92
2019-04-21T23:07:05.538Z,33.92
2019-04-21T23:09:40.357Z,31.68
2019-04-21T23:12:20.446Z,32.95
2019-04-21T23:15:01.811Z,38.40
2019-04-21T23:17:56.725Z,32.65
2019-04-21T23:20:32.522Z,41.33
2019-04-21T23:23:11.789Z,41.47
2019-04-21T23:25:42.544Z,41.90
2019-04-21T23:28:16.110Z,39.20
2019-04-21T23:31:00.626Z,40.98
2019-04-21T23:33:23.386Z,41.98
2019-04-21T23:36:08.495Z,38.70
2019-04-21T23:38:43.966Z,37.83
2019-04-21T23:41:15.348Z,36.93
2019-04-21T23:44:00.412Z,37.50
2019-04-21T23:46:35.136Z,36.30
2019-04-21T23:49:21.648Z,37.55
2019-04-21T23:51:55.607Z,37.30
2019-04-21T23:54:27.250Z,38.38
2019-04-21T23:57:14.199Z,37.20
2019-04-21T23:59:46.879Z,35.43
